Time;durP1;ratioP1;P1;durP2;ratioP2;P2;SDS_P1;SDS_P2;PMS_P1;PMS_P2;Temp;Humidity;BMP_temperature;BMP_pressure;BME280_temperature;BME280_humidity;BME280_pressure;Samples;Min_cycle;Max_cycle;Signal;HPM_P1;HPM_P2
2023/10/26 00:01:25;;;;;;;2.40;1.20;;;;;;;;;;4999962;28;20244;-68
2023/10/26 00:03:53;;;;;;;2.07;1.10;;;;;;;;;;5003889;28;20231;-69
2023/10/26 00:06:22;;;;;;;1.27;1.13;;;;;;;;;;5012957;28;20227;-68
2023/10/26 00:08:50;;;;;;;3.13;1.20;;;;;;;;;;5005670;28;20229;-69
2023/10/26 00:11:18;;;;;;;2.67;1.13;;;;;;;;;;5013012;28;20200;-69
2023/10/26 00:13:46;;;;;;;4.53;1.80;;;;;;;;;;5004467;28;20233;-68
2023/10/26 00:16:15;;;;;;;1.30;1.13;;;;;;;;;;5000232;28;20228;-68
2023/10/26 00:18:43;;;;;;;1.37;1.00;;;;;;;;;;5000093;28;20208;-68
2023/10/26 00:21:11;;;;;;;1.20;1.03;;;;;;;;;;5004065;28;20296;-69
2023/10/26 00:23:39;;;;;;;2.33;1.60;;;;;;;;;;4999733;28;20225;-68
2023/10/26 00:26:07;;;;;;;1.00;1.00;;;;;;;;;;5000164;28;20296;-69
2023/10/26 00:28:35;;;;;;;2.17;1.17;;;;;;;;;;5007313;28;20292;-69
2023/10/26 00:31:03;;;;;;;2.77;1.27;;;;;;;;;;5018195;28;20287;-68
2023/10/26 00:33:33;;;;;;;2.63;1.23;;;;;;;;;;5017732;28;20279;-69
2023/10/26 00:36:01;;;;;;;3.60;1.23;;;;;;;;;;5017180;28;20216;-68
2023/10/26 00:38:29;;;;;;;3.67;1.60;;;;;;;;;;5012793;28;20264;-69
2023/10/26 00:40:57;;;;;;;2.40;1.20;;;;;;;;;;5011107;28;20284;-68
2023/10/26 00:43:25;;;;;;;3.17;1.50;;;;;;;;;;5011143;28;20631;-68
2023/10/26 00:45:54;;;;;;;1.47;1.10;;;;;;;;;;5018158;28;20291;-69
2023/10/26 00:48:22;;;;;;;1.60;1.10;;;;;;;;;;5018217;28;20546;-68
2023/10/26 00:50:52;;;;;;;1.13;1.10;;;;;;;;;;5018132;28;20228;-68
2023/10/26 00:53:20;;;;;;;2.10;1.10;;;;;;;;;;5017906;28;20227;-68
2023/10/26 00:55:50;;;;;;;3.07;1.30;;;;;;;;;;5017520;28;20243;-67
2023/10/26 00:58:18;;;;;;;1.57;1.10;;;;;;;;;;5013487;28;20197;-67
2023/10/26 01:00:46;;;;;;;3.20;1.20;;;;;;;;;;5008482;28;20263;-67
2023/10/26 01:03:14;;;;;;;6.60;1.23;;;;;;;;;;5006483;28;20232;-67
2023/10/26 01:05:42;;;;;;;2.57;1.30;;;;;;;;;;5017314;28;20293;-67
2023/10/26 01:08:12;;;;;;;1.60;1.17;;;;;;;;;;5015610;28;20288;-67
2023/10/26 01:10:40;;;;;;;3.00;1.23;;;;;;;;;;5013603;28;20279;-67
2023/10/26 01:13:09;;;;;;;2.20;1.10;;;;;;;;;;5015462;28;20332;-67
2023/10/26 01:15:37;;;;;;;3.50;1.20;;;;;;;;;;5005282;28;20228;-67
2023/10/26 01:18:05;;;;;;;3.90;1.27;;;;;;;;;;5018461;28;20666;-66
2023/10/26 01:20:33;;;;;;;1.30;1.00;;;;;;;;;;5016774;28;20204;-67
2023/10/26 01:23:03;;;;;;;2.40;1.10;;;;;;;;;;5016515;28;20211;-68
2023/10/26 01:25:31;;;;;;;1.77;1.10;;;;;;;;;;5004185;28;20643;-66
2023/10/26 01:27:59;;;;;;;2.27;1.03;;;;;;;;;;5018647;28;20299;-67
2023/10/26 01:30:27;;;;;;;2.33;1.10;;;;;;;;;;5014387;28;20306;-67
2023/10/26 01:32:55;;;;;;;1.47;1.13;;;;;;;;;;5016952;28;20235;-66
2023/10/26 01:35:23;;;;;;;3.37;1.00;;;;;;;;;;5005215;28;20204;-67
2023/10/26 01:37:51;;;;;;;1.57;1.10;;;;;;;;;;5016808;28;20215;-67
2023/10/26 01:40:20;;;;;;;3.40;1.10;;;;;;;;;;5016709;28;20224;-67
2023/10/26 01:42:48;;;;;;;2.67;1.03;;;;;;;;;;5017362;28;20291;-67
2023/10/26 01:45:16;;;;;;;1.57;1.17;;;;;;;;;;5016309;28;20757;-67
2023/10/26 01:47:44;;;;;;;2.70;1.10;;;;;;;;;;5015741;28;20208;-67
2023/10/26 01:50:12;;;;;;;3.13;1.00;;;;;;;;;;5013692;28;20231;-67
2023/10/26 01:52:40;;;;;;;0.80;0.80;;;;;;;;;;5016912;28;20294;-67
2023/10/26 01:55:09;;;;;;;4.47;1.40;;;;;;;;;;5016580;28;20749;-67
2023/10/26 01:57:38;;;;;;;1.40;1.20;;;;;;;;;;5017684;28;20322;-67
2023/10/26 02:00:08;;;;;;;1.83;1.10;;;;;;;;;;5014128;28;20667;-67
2023/10/26 02:02:36;;;;;;;3.23;1.27;;;;;;;;;;5004227;28;20228;-67
2023/10/26 02:05:05;;;;;;;1.53;1.10;;;;;;;;;;5015900;28;20274;-67
2023/10/26 02:07:33;;;;;;;0.87;0.87;;;;;;;;;;5014608;28;20234;-67
2023/10/26 02:10:01;;;;;;;2.07;1.30;;;;;;;;;;4999949;28;20228;-67
2023/10/26 02:12:29;;;;;;;1.40;1.10;;;;;;;;;;4997940;28;20260;-67
2023/10/26 02:14:58;;;;;;;1.07;1.00;;;;;;;;;;4998112;28;20311;-67
2023/10/26 02:17:26;;;;;;;1.70;1.20;;;;;;;;;;4998213;28;20258;-67
2023/10/26 02:19:54;;;;;;;4.53;1.10;;;;;;;;;;5009299;28;20659;-67
2023/10/26 02:22:22;;;;;;;3.67;1.10;;;;;;;;;;4997955;28;20291;-67
2023/10/26 02:24:50;;;;;;;1.37;0.90;;;;;;;;;;4998022;28;20320;-67
2023/10/26 02:27:18;;;;;;;1.43;0.90;;;;;;;;;;4998224;28;20283;-67
2023/10/26 02:29:46;;;;;;;1.40;0.93;;;;;;;;;;5005077;28;20208;-67
2023/10/26 02:32:16;;;;;;;3.90;1.00;;;;;;;;;;5008803;28;20268;-67
2023/10/26 02:34:44;;;;;;;2.10;1.20;;;;;;;;;;5020712;28;20260;-67
2023/10/26 02:37:12;;;;;;;4.00;1.10;;;;;;;;;;5021053;28;20212;-68
2023/10/26 02:39:40;;;;;;;5.43;1.10;;;;;;;;;;5020816;28;20291;-67
2023/10/26 02:42:08;;;;;;;3.33;1.10;;;;;;;;;;5009165;28;20565;-67
2023/10/26 02:44:37;;;;;;;5.50;1.30;;;;;;;;;;5013470;28;20311;-68
2023/10/26 02:47:05;;;;;;;1.93;1.00;;;;;;;;;;5019515;28;20287;-68
2023/10/26 02:49:34;;;;;;;2.50;1.10;;;;;;;;;;5020646;28;20295;-67
2023/10/26 02:52:02;;;;;;;4.80;1.90;;;;;;;;;;5012563;28;20228;-67
2023/10/26 02:54:30;;;;;;;2.53;0.80;;;;;;;;;;5010623;28;20224;-67
2023/10/26 02:56:58;;;;;;;1.17;0.90;;;;;;;;;;5009506;28;20255;-67
2023/10/26 02:59:27;;;;;;;1.57;1.00;;;;;;;;;;5009102;28;20200;-67
2023/10/26 03:01:56;;;;;;;1.63;0.83;;;;;;;;;;5012280;28;20274;-67
2023/10/26 03:04:24;;;;;;;1.67;1.37;;;;;;;;;;5010127;28;20260;-67
2023/10/26 03:06:57;;;;;;;3.17;0.87;;;;;;;;;;5011959;28;20255;-67
2023/10/26 03:09:25;;;;;;;1.73;0.83;;;;;;;;;;5009641;28;20812;-67
2023/10/26 03:11:54;;;;;;;1.73;0.90;;;;;;;;;;5013268;28;20227;-67
2023/10/26 03:14:24;;;;;;;2.63;1.40;;;;;;;;;;5010326;28;20231;-67
2023/10/26 03:16:52;;;;;;;3.63;1.60;;;;;;;;;;5012218;28;20287;-67
2023/10/26 03:19:20;;;;;;;2.33;1.07;;;;;;;;;;5012113;28;20201;-69
2023/10/26 03:21:48;;;;;;;2.87;0.80;;;;;;;;;;5010274;28;20280;-67
2023/10/26 03:24:20;;;;;;;2.90;0.90;;;;;;;;;;5010989;28;20259;-67
2023/10/26 03:26:48;;;;;;;4.57;1.00;;;;;;;;;;5012907;28;20258;-67
2023/10/26 03:29:16;;;;;;;0.80;0.80;;;;;;;;;;5016940;28;20287;-68
2023/10/26 03:31:44;;;;;;;2.60;0.83;;;;;;;;;;5018991;28;20275;-69
2023/10/26 03:34:12;;;;;;;1.60;1.10;;;;;;;;;;5019654;28;20216;-69
2023/10/26 03:36:40;;;;;;;2.00;1.10;;;;;;;;;;5019998;28;20355;-69
2023/10/26 03:39:08;;;;;;;5.00;1.20;;;;;;;;;;5017963;28;20212;-68
2023/10/26 03:41:37;;;;;;;1.77;0.97;;;;;;;;;;5013505;28;20264;-68
2023/10/26 03:44:07;;;;;;;5.47;0.83;;;;;;;;;;5018375;28;20319;-68
2023/10/26 03:46:35;;;;;;;3.07;1.20;;;;;;;;;;5001612;28;20213;-68
2023/10/26 03:49:03;;;;;;;1.07;0.80;;;;;;;;;;5012748;28;20259;-68
2023/10/26 03:51:31;;;;;;;3.23;1.10;;;;;;;;;;5019521;28;20251;-68
2023/10/26 03:53:58;;;;;;;2.33;0.97;;;;;;;;;;5019205;28;20234;-68
2023/10/26 03:56:27;;;;;;;2.07;0.87;;;;;;;;;;5019938;28;20244;-68
2023/10/26 03:58:56;;;;;;;4.83;1.10;;;;;;;;;;5014826;28;20216;-68
2023/10/26 04:01:24;;;;;;;3.70;1.43;;;;;;;;;;5019494;28;20224;-68
2023/10/26 04:03:52;;;;;;;2.57;0.80;;;;;;;;;;5012374;28;20228;-68
2023/10/26 04:06:20;;;;;;;2.33;0.90;;;;;;;;;;5019584;28;20675;-68
2023/10/26 04:08:48;;;;;;;1.90;1.07;;;;;;;;;;5009636;28;20205;-68
2023/10/26 04:11:17;;;;;;;3.93;1.10;;;;;;;;;;5010779;28;20274;-69
2023/10/26 04:13:45;;;;;;;1.20;0.90;;;;;;;;;;5015862;28;20275;-69
2023/10/26 04:16:41;;;;;;;4.43;1.07;;;;;;;;;;5000266;28;20208;-69
2023/10/26 04:19:10;;;;;;;1.37;1.10;;;;;;;;;;5007892;28;20726;-69
2023/10/26 04:21:38;;;;;;;2.63;1.23;;;;;;;;;;5009910;28;20204;-69
2023/10/26 04:24:06;;;;;;;1.83;0.90;;;;;;;;;;5019512;28;20262;-68
2023/10/26 04:26:35;;;;;;;2.93;1.03;;;;;;;;;;5017414;28;20197;-69
2023/10/26 04:29:05;;;;;;;1.23;1.00;;;;;;;;;;5012255;28;20200;-69
2023/10/26 04:31:37;;;;;;;1.43;0.77;;;;;;;;;;5019621;28;20278;-68
2023/10/26 04:34:05;;;;;;;2.53;1.00;;;;;;;;;;5018855;28;20235;-69
2023/10/26 04:39:57;;;;;;;0.60;0.60;;;;;;;;;;5013865;28;20659;-68
2023/10/26 04:42:27;;;;;;;2.00;0.90;;;;;;;;;;5010018;28;20628;-68
2023/10/26 04:44:55;;;;;;;1.83;0.87;;;;;;;;;;5015159;28;20282;-68
2023/10/26 04:47:23;;;;;;;1.70;0.90;;;;;;;;;;5018288;28;20235;-69
2023/10/26 04:49:52;;;;;;;3.97;1.20;;;;;;;;;;5018258;28;20204;-68
2023/10/26 04:52:20;;;;;;;3.87;1.10;;;;;;;;;;5018809;28;20258;-68
2023/10/26 04:54:51;;;;;;;3.30;1.00;;;;;;;;;;5017636;28;20753;-68
2023/10/26 04:57:22;;;;;;;3.50;1.00;;;;;;;;;;5016109;28;20239;-68
2023/10/26 04:59:50;;;;;;;5.13;1.80;;;;;;;;;;5014900;28;20208;-67
2023/10/26 05:02:18;;;;;;;3.47;1.07;;;;;;;;;;5017060;28;20623;-67
2023/10/26 05:04:46;;;;;;;1.17;0.80;;;;;;;;;;4999170;28;20225;-65
2023/10/26 05:07:15;;;;;;;1.33;0.83;;;;;;;;;;4998993;28;20213;-66
2023/10/26 05:09:43;;;;;;;1.07;0.70;;;;;;;;;;5011496;28;20212;-66
2023/10/26 05:12:30;;;;;;;2.67;0.97;;;;;;;;;;5018436;28;20228;-66
2023/10/26 05:18:27;;;;;;;2.57;1.00;;;;;;;;;;5017597;28;20208;-66
2023/10/26 05:20:55;;;;;;;2.63;1.30;;;;;;;;;;5018593;28;20209;-66
2023/10/26 05:23:23;;;;;;;3.40;1.10;;;;;;;;;;5017838;28;20224;-66
2023/10/26 05:25:52;;;;;;;5.63;1.13;;;;;;;;;;5016628;28;20205;-65
2023/10/26 05:28:21;;;;;;;5.60;2.30;;;;;;;;;;5015351;28;20209;-66
2023/10/26 05:30:49;;;;;;;5.17;1.50;;;;;;;;;;5010641;28;20694;-66
2023/10/26 05:33:17;;;;;;;3.50;1.33;;;;;;;;;;5004968;28;20225;-66
2023/10/26 05:35:52;;;;;;;1.27;1.17;;;;;;;;;;5008810;28;20200;-66
2023/10/26 05:41:52;;;;;;;1.23;1.10;;;;;;;;;;5000225;28;20209;-67
2023/10/26 05:44:22;;;;;;;2.30;0.80;;;;;;;;;;5000900;28;20220;-66
2023/10/26 05:46:50;;;;;;;2.00;1.17;;;;;;;;;;5002545;28;20389;-65
2023/10/26 05:49:18;;;;;;;2.60;1.00;;;;;;;;;;5006435;28;20664;-65
2023/10/26 05:51:46;;;;;;;2.50;1.30;;;;;;;;;;5016139;28;20278;-65
2023/10/26 05:57:36;;;;;;;2.50;0.83;;;;;;;;;;5009176;28;20223;-65
2023/10/26 06:00:09;;;;;;;1.97;0.87;;;;;;;;;;5002494;28;20208;-65
2023/10/26 06:02:38;;;;;;;5.23;0.90;;;;;;;;;;5013712;28;20284;-65
2023/10/26 06:05:08;;;;;;;1.77;0.90;;;;;;;;;;4998130;28;20229;-66
2023/10/26 06:07:36;;;;;;;3.17;1.00;;;;;;;;;;4998885;28;20216;-66
2023/10/26 06:10:10;;;;;;;2.77;1.00;;;;;;;;;;4998197;28;20240;-65
2023/10/26 06:16:15;;;;;;;3.20;1.17;;;;;;;;;;5003544;28;20187;-66
2023/10/26 06:18:44;;;;;;;1.17;0.77;;;;;;;;;;5002619;28;20232;-65
2023/10/26 06:24:36;;;;;;;0.83;0.83;;;;;;;;;;5017246;28;20288;-64
2023/10/26 06:27:07;;;;;;;2.77;1.20;;;;;;;;;;5014433;28;20200;-64
2023/10/26 06:29:37;;;;;;;2.10;0.87;;;;;;;;;;5013506;28;20214;-64
2023/10/26 06:32:07;;;;;;;2.73;1.13;;;;;;;;;;5001378;28;20231;-64
2023/10/26 06:34:36;;;;;;;2.20;1.07;;;;;;;;;;5003524;28;20231;-64
2023/10/26 06:37:06;;;;;;;1.73;1.07;;;;;;;;;;4997489;28;20247;-66
2023/10/26 06:39:35;;;;;;;2.37;0.90;;;;;;;;;;5010146;28;20211;-66
2023/10/26 06:42:12;;;;;;;3.67;1.10;;;;;;;;;;5012828;28;20604;-64
2023/10/26 06:44:44;;;;;;;1.70;0.97;;;;;;;;;;5013407;28;20231;-64
2023/10/26 06:47:15;;;;;;;2.30;1.10;;;;;;;;;;5010772;28;20208;-66
2023/10/26 06:49:45;;;;;;;2.90;1.10;;;;;;;;;;5016421;28;20205;-64
2023/10/26 06:52:16;;;;;;;3.83;1.17;;;;;;;;;;5006095;28;20228;-67
2023/10/26 06:54:47;;;;;;;1.30;0.90;;;;;;;;;;5012068;28;20270;-66
2023/10/26 06:57:16;;;;;;;1.30;1.00;;;;;;;;;;5014018;28;20243;-66
2023/10/26 06:59:45;;;;;;;2.17;1.17;;;;;;;;;;5018535;28;20211;-66
2023/10/26 07:05:42;;;;;;;2.33;0.90;;;;;;;;;;5014023;28;20241;-64
2023/10/26 07:08:44;;;;;;;2.63;1.00;;;;;;;;;;5020130;28;20213;-64
2023/10/26 07:11:31;;;;;;;2.27;1.20;;;;;;;;;;5013324;28;20230;-65
2023/10/26 07:17:37;;;;;;;2.50;1.20;;;;;;;;;;5018083;28;20659;-65
2023/10/26 07:20:12;;;;;;;1.23;0.80;;;;;;;;;;5030171;28;20243;-64
2023/10/26 07:22:52;;;;;;;0.97;0.90;;;;;;;;;;5038429;28;20207;-64
2023/10/26 07:25:20;;;;;;;2.77;0.97;;;;;;;;;;5040393;28;20228;-65
2023/10/26 07:28:07;;;;;;;1.80;1.10;;;;;;;;;;5037243;28;20288;-65
2023/10/26 07:30:39;;;;;;;3.00;0.80;;;;;;;;;;5035652;28;20196;-66
2023/10/26 07:33:09;;;;;;;4.03;1.10;;;;;;;;;;5021126;28;20658;-66
2023/10/26 07:35:40;;;;;;;2.50;1.00;;;;;;;;;;5028165;28;20211;-66
2023/10/26 07:38:09;;;;;;;2.07;0.87;;;;;;;;;;5039552;28;20219;-67
2023/10/26 07:40:58;;;;;;;3.90;1.13;;;;;;;;;;5032914;28;20549;-66
2023/10/26 07:43:26;;;;;;;3.43;1.07;;;;;;;;;;5033680;28;20226;-65
2023/10/26 07:45:58;;;;;;;1.53;1.20;;;;;;;;;;5020796;28;20212;-65
2023/10/26 07:48:28;;;;;;;0.90;0.90;;;;;;;;;;5020481;28;20240;-66
2023/10/26 07:50:57;;;;;;;0.73;0.73;;;;;;;;;;5019945;28;20212;-65
2023/10/26 07:53:25;;;;;;;1.43;0.90;;;;;;;;;;5022964;28;20237;-65
2023/10/26 07:55:56;;;;;;;2.03;1.00;;;;;;;;;;5039771;28;20207;-66
2023/10/26 07:58:25;;;;;;;4.50;1.10;;;;;;;;;;5040044;28;20301;-66
2023/10/26 08:00:53;;;;;;;3.00;0.90;;;;;;;;;;5022717;28;20584;-66
2023/10/26 08:03:23;;;;;;;1.93;1.00;;;;;;;;;;5029989;28;20230;-65
2023/10/26 08:06:00;;;;;;;2.80;0.90;;;;;;;;;;5022291;28;20300;-66
2023/10/26 08:08:58;;;;;;;1.97;1.00;;;;;;;;;;5030785;28;20206;-65
2023/10/26 08:11:38;;;;;;;1.87;1.07;;;;;;;;;;5020261;28;20208;-65
2023/10/26 08:14:12;;;;;;;2.53;1.00;;;;;;;;;;5020651;28;20239;-66
2023/10/26 08:17:40;;;;;;;;;;;;;;;;;;;;;
2023/10/26 08:20:24;;;;;;;3.57;0.90;;;;;;;;;;5036146;28;20226;-65
2023/10/26 08:22:55;;;;;;;4.90;1.67;;;;;;;;;;5026227;28;20206;-65
2023/10/26 08:25:26;;;;;;;2.50;1.17;;;;;;;;;;5023617;28;20204;-65
2023/10/26 08:27:55;;;;;;;3.87;1.30;;;;;;;;;;5025353;28;20200;-65
2023/10/26 08:30:28;;;;;;;5.10;1.30;;;;;;;;;;5036500;28;20203;-65
2023/10/26 08:33:06;;;;;;;2.83;1.50;;;;;;;;;;5036799;28;20207;-65
2023/10/26 08:35:51;;;;;;;2.43;1.37;;;;;;;;;;5039710;28;20562;-65
2023/10/26 08:38:29;;;;;;;1.47;1.03;;;;;;;;;;5038650;28;20668;-65
2023/10/26 08:41:02;;;;;;;1.70;0.93;;;;;;;;;;5030948;28;20730;-65
2023/10/26 08:43:36;;;;;;;2.93;1.00;;;;;;;;;;5022102;28;20243;-65
2023/10/26 08:46:10;;;;;;;2.30;1.20;;;;;;;;;;5037655;28;20539;-65
2023/10/26 08:48:42;;;;;;;4.27;1.30;;;;;;;;;;5037822;28;20226;-65
2023/10/26 08:51:28;;;;;;;2.07;1.33;;;;;;;;;;5038046;28;20204;-66
2023/10/26 08:57:16;;;;;;;2.53;1.20;;;;;;;;;;4955218;28;20282;-64
2023/10/26 08:59:53;;;;;;;5.13;1.67;;;;;;;;;;5019515;28;20633;-64
2023/10/26 09:02:22;;;;;;;2.13;1.23;;;;;;;;;;5021345;28;20247;-64
2023/10/26 09:05:02;;;;;;;2.50;1.53;;;;;;;;;;5019559;28;20224;-65
2023/10/26 09:07:41;;;;;;;5.80;1.47;;;;;;;;;;5032235;28;20239;-64
2023/10/26 09:10:28;;;;;;;2.30;1.00;;;;;;;;;;5039126;28;20247;-64
2023/10/26 09:13:02;;;;;;;5.27;1.03;;;;;;;;;;5039158;28;20294;-64
2023/10/26 09:15:49;;;;;;;2.57;1.00;;;;;;;;;;5039334;28;20291;-64
2023/10/26 09:18:18;;;;;;;1.57;0.90;;;;;;;;;;5036476;28;20238;-66
2023/10/26 09:21:11;;;;;;;2.70;1.10;;;;;;;;;;5020402;28;20200;-66
2023/10/26 09:23:45;;;;;;;2.63;1.00;;;;;;;;;;5032492;28;20579;-67
2023/10/26 09:26:45;;;;;;;3.67;1.30;;;;;;;;;;5033340;28;20208;-66
2023/10/26 09:29:44;;;;;;;1.63;1.10;;;;;;;;;;5033726;28;20599;-65
2023/10/26 09:32:42;;;;;;;4.00;1.27;;;;;;;;;;5029651;28;20554;-65
2023/10/26 09:35:26;;;;;;;1.53;1.20;;;;;;;;;;5027233;28;20235;-65
2023/10/26 09:37:56;;;;;;;0.77;0.77;;;;;;;;;;5034917;28;20237;-65
2023/10/26 09:40:29;;;;;;;2.37;0.83;;;;;;;;;;5034622;28;20291;-64
2023/10/26 09:43:05;;;;;;;2.30;1.30;;;;;;;;;;5032428;28;20197;-65
2023/10/26 09:45:34;;;;;;;1.20;0.90;;;;;;;;;;5034925;28;20211;-65
2023/10/26 09:48:05;;;;;;;2.13;1.30;;;;;;;;;;5034542;28;20207;-66
2023/10/26 09:50:39;;;;;;;3.60;1.07;;;;;;;;;;5017967;28;20270;-66
2023/10/26 09:53:08;;;;;;;4.37;1.00;;;;;;;;;;5026529;28;20195;-65
2023/10/26 09:55:42;;;;;;;4.60;1.30;;;;;;;;;;5029736;28;20224;-66
2023/10/26 09:58:13;;;;;;;2.03;1.17;;;;;;;;;;5024509;28;20207;-69
2023/10/26 10:00:41;;;;;;;2.47;1.23;;;;;;;;;;5019973;28;20212;-66
2023/10/26 10:03:09;;;;;;;1.73;1.40;;;;;;;;;;5029994;28;20294;-67
2023/10/26 10:05:38;;;;;;;4.13;1.13;;;;;;;;;;5016768;28;20200;-66
2023/10/26 10:08:07;;;;;;;2.10;1.30;;;;;;;;;;5025544;28;20638;-65
2023/10/26 10:10:38;;;;;;;3.03;1.67;;;;;;;;;;5035639;28;20215;-65
2023/10/26 10:13:08;;;;;;;3.30;1.30;;;;;;;;;;5028604;28;20258;-65
2023/10/26 10:15:42;;;;;;;2.93;1.33;;;;;;;;;;5024033;28;20223;-66
2023/10/26 10:18:11;;;;;;;1.83;1.20;;;;;;;;;;5017242;28;20207;-66
2023/10/26 10:20:43;;;;;;;1.83;1.30;;;;;;;;;;5020308;28;20215;-65
2023/10/26 10:23:30;;;;;;;2.50;1.20;;;;;;;;;;5022808;28;20721;-66
2023/10/26 10:26:02;;;;;;;2.90;1.33;;;;;;;;;;5017701;28;20270;-65
2023/10/26 10:28:53;;;;;;;3.53;1.60;;;;;;;;;;5033009;28;20206;-67
2023/10/26 10:31:40;;;;;;;3.40;1.33;;;;;;;;;;5032092;28;20258;-67
2023/10/26 10:34:13;;;;;;;1.67;1.30;;;;;;;;;;5029710;28;20238;-66
2023/10/26 10:36:58;;;;;;;3.20;1.47;;;;;;;;;;5036279;28;20571;-67
2023/10/26 10:39:26;;;;;;;2.87;1.70;;;;;;;;;;5034433;28;20690;-66
2023/10/26 10:41:56;;;;;;;1.70;1.23;;;;;;;;;;5021649;28;20223;-66
2023/10/26 10:44:26;;;;;;;1.73;1.27;;;;;;;;;;5017480;28;20220;-65
2023/10/26 10:46:56;;;;;;;2.87;1.17;;;;;;;;;;5023832;28;20324;-65
2023/10/26 10:49:25;;;;;;;3.07;1.43;;;;;;;;;;5033001;28;20206;-65
2023/10/26 10:51:53;;;;;;;2.27;1.23;;;;;;;;;;5017119;28;20216;-67
2023/10/26 10:54:22;;;;;;;2.77;1.13;;;;;;;;;;5020721;28;20233;-65
2023/10/26 10:57:10;;;;;;;4.50;1.50;;;;;;;;;;5027732;28;20231;-66
2023/10/26 10:59:39;;;;;;;1.20;1.10;;;;;;;;;;5028731;28;20203;-66
2023/10/26 11:02:09;;;;;;;4.27;1.20;;;;;;;;;;5040817;28;20208;-65
2023/10/26 11:04:51;;;;;;;3.53;1.10;;;;;;;;;;5027110;28;20230;-66
2023/10/26 11:07:32;;;;;;;1.73;1.20;;;;;;;;;;5033287;28;20239;-66
2023/10/26 11:10:05;;;;;;;2.30;1.27;;;;;;;;;;5033892;28;20234;-65
2023/10/26 11:12:35;;;;;;;2.50;1.20;;;;;;;;;;5040725;28;20301;-66
2023/10/26 11:15:04;;;;;;;1.97;1.57;;;;;;;;;;5040587;28;20235;-65
2023/10/26 11:17:33;;;;;;;4.33;1.10;;;;;;;;;;5022593;28;20208;-66
2023/10/26 11:20:03;;;;;;;2.33;1.10;;;;;;;;;;5035322;28;20212;-65
2023/10/26 11:22:31;;;;;;;1.43;1.10;;;;;;;;;;5036493;28;20700;-65
2023/10/26 11:25:00;;;;;;;3.60;1.00;;;;;;;;;;5033182;28;20704;-66
2023/10/26 11:27:39;;;;;;;1.30;1.03;;;;;;;;;;5027817;28;20196;-66
2023/10/26 11:30:11;;;;;;;2.77;1.30;;;;;;;;;;5031902;28;20204;-67
2023/10/26 11:32:48;;;;;;;4.50;1.40;;;;;;;;;;5030959;28;20566;-67
2023/10/26 11:39:09;;;;;;;6.43;1.53;;;;;;;;;;5019112;28;20204;-66
2023/10/26 11:42:04;;;;;;;1.40;1.27;;;;;;;;;;5030401;28;20228;-66
2023/10/26 11:45:07;;;;;;;2.97;1.30;;;;;;;;;;5016371;28;20232;-66
2023/10/26 11:47:50;;;;;;;2.93;1.23;;;;;;;;;;5019665;28;20213;-66
2023/10/26 11:50:31;;;;;;;4.67;1.60;;;;;;;;;;5027537;28;20239;-66
2023/10/26 11:53:04;;;;;;;2.47;1.23;;;;;;;;;;5019680;28;20208;-66
2023/10/26 11:55:36;;;;;;;3.10;1.93;;;;;;;;;;5019839;28;20224;-66
2023/10/26 11:58:08;;;;;;;3.63;1.87;;;;;;;;;;5025387;28;20292;-66
2023/10/26 12:00:41;;;;;;;4.67;1.60;;;;;;;;;;5027930;28;20225;-66
2023/10/26 12:03:17;;;;;;;3.63;2.07;;;;;;;;;;5020142;28;20212;-67
2023/10/26 12:05:54;;;;;;;2.83;1.50;;;;;;;;;;5031148;28;20204;-66
2023/10/26 12:08:36;;;;;;;2.63;1.90;;;;;;;;;;5037706;28;20207;-66
2023/10/26 12:11:20;;;;;;;3.73;1.80;;;;;;;;;;5038692;28;20207;-66
2023/10/26 12:13:55;;;;;;;5.37;2.10;;;;;;;;;;5037249;28;20560;-66
2023/10/26 12:16:28;;;;;;;4.10;2.53;;;;;;;;;;5031169;28;20223;-66
2023/10/26 12:18:59;;;;;;;2.40;2.20;;;;;;;;;;5033894;28;20214;-66
2023/10/26 12:21:27;;;;;;;3.70;2.37;;;;;;;;;;5031598;28;20231;-66
2023/10/26 12:23:56;;;;;;;4.07;2.00;;;;;;;;;;5025970;28;20268;-66
2023/10/26 12:26:24;;;;;;;2.87;2.20;;;;;;;;;;5021687;28;20202;-68
2023/10/26 12:28:52;;;;;;;6.57;3.00;;;;;;;;;;5025805;28;20212;-67
2023/10/26 12:31:20;;;;;;;7.70;2.57;;;;;;;;;;5026183;28;20651;-66
2023/10/26 12:33:50;;;;;;;3.27;2.20;;;;;;;;;;5024677;28;20224;-65
2023/10/26 12:36:19;;;;;;;3.47;1.70;;;;;;;;;;5018755;28;20260;-65
2023/10/26 12:38:48;;;;;;;8.13;2.47;;;;;;;;;;5018653;28;20541;-65
2023/10/26 12:41:16;;;;;;;3.03;2.10;;;;;;;;;;5020761;28;20209;-65
2023/10/26 12:43:44;;;;;;;4.67;2.00;;;;;;;;;;5018105;28;20652;-65
2023/10/26 12:46:12;;;;;;;5.07;2.73;;;;;;;;;;5017678;28;20644;-65
2023/10/26 12:48:40;;;;;;;3.03;1.77;;;;;;;;;;5024491;28;20219;-65
2023/10/26 12:51:08;;;;;;;4.07;2.20;;;;;;;;;;5017470;28;20212;-65
2023/10/26 12:53:38;;;;;;;7.63;2.87;;;;;;;;;;5017084;28;20237;-65
2023/10/26 12:56:06;;;;;;;3.67;2.00;;;;;;;;;;5027375;28;20233;-65
2023/10/26 12:58:34;;;;;;;3.47;1.73;;;;;;;;;;5020280;28;20207;-65
2023/10/26 13:01:03;;;;;;;2.97;1.93;;;;;;;;;;5020839;28;20698;-65
2023/10/26 13:03:31;;;;;;;1.50;1.40;;;;;;;;;;5026110;28;20224;-65
2023/10/26 13:05:59;;;;;;;2.83;1.67;;;;;;;;;;5018685;28;20634;-65
2023/10/26 13:08:27;;;;;;;3.67;1.73;;;;;;;;;;5020282;28;20205;-65
2023/10/26 13:10:57;;;;;;;3.50;2.03;;;;;;;;;;5038779;28;20204;-65
2023/10/26 13:13:25;;;;;;;4.40;1.60;;;;;;;;;;5037830;28;20650;-65
2023/10/26 13:15:53;;;;;;;7.07;1.77;;;;;;;;;;5037748;28;20221;-64
2023/10/26 13:18:21;;;;;;;3.03;1.57;;;;;;;;;;5037592;28;20207;-65
2023/10/26 13:20:50;;;;;;;2.10;1.20;;;;;;;;;;5037454;28;20299;-65
2023/10/26 13:23:18;;;;;;;3.10;1.80;;;;;;;;;;5031066;28;20234;-65
2023/10/26 13:25:47;;;;;;;2.93;1.87;;;;;;;;;;5038460;28;20214;-64
2023/10/26 13:28:16;;;;;;;4.37;2.03;;;;;;;;;;5029889;28;20212;-65
2023/10/26 13:30:44;;;;;;;2.27;1.30;;;;;;;;;;5018372;28;20208;-65
2023/10/26 13:33:12;;;;;;;2.60;1.50;;;;;;;;;;5018211;28;20251;-64
2023/10/26 13:35:41;;;;;;;3.00;1.80;;;;;;;;;;5018319;28;20219;-65
2023/10/26 13:38:12;;;;;;;2.03;1.50;;;;;;;;;;5018014;28;20567;-65
2023/10/26 13:40:40;;;;;;;5.47;1.60;;;;;;;;;;5031813;28;20207;-65
2023/10/26 13:43:08;;;;;;;2.87;1.40;;;;;;;;;;5021034;28;20212;-65
2023/10/26 13:45:38;;;;;;;2.40;1.83;;;;;;;;;;5018060;28;20656;-65
2023/10/26 13:48:06;;;;;;;3.20;1.90;;;;;;;;;;5018101;28;20240;-65
2023/10/26 13:50:35;;;;;;;4.03;2.00;;;;;;;;;;5018237;28;20215;-65
2023/10/26 13:53:03;;;;;;;3.80;2.13;;;;;;;;;;5018002;28;20212;-65
2023/10/26 13:55:33;;;;;;;2.17;1.90;;;;;;;;;;5033608;28;20215;-65
2023/10/26 13:58:01;;;;;;;5.17;2.20;;;;;;;;;;5017982;28;20277;-65
2023/10/26 14:00:30;;;;;;;3.90;2.20;;;;;;;;;;5017879;28;20714;-65
2023/10/26 14:03:00;;;;;;;3.67;2.43;;;;;;;;;;5025010;28;20237;-65
2023/10/26 14:05:28;;;;;;;3.30;2.13;;;;;;;;;;5018307;28;20579;-65
2023/10/26 14:07:58;;;;;;;3.13;2.10;;;;;;;;;;5026074;28;20207;-65
2023/10/26 14:10:26;;;;;;;3.27;2.33;;;;;;;;;;5018229;28;20216;-65
2023/10/26 14:12:54;;;;;;;2.97;2.13;;;;;;;;;;5020559;28;20580;-65
2023/10/26 14:15:23;;;;;;;6.23;2.03;;;;;;;;;;5018071;28;20263;-65
2023/10/26 14:17:51;;;;;;;5.03;2.03;;;;;;;;;;5017541;28;20238;-65
2023/10/26 14:20:21;;;;;;;2.73;2.30;;;;;;;;;;5017705;28;20219;-65
2023/10/26 14:22:49;;;;;;;3.17;2.07;;;;;;;;;;5028213;28;20563;-65
2023/10/26 14:25:17;;;;;;;3.77;2.37;;;;;;;;;;5017777;28;20231;-65
2023/10/26 14:27:45;;;;;;;3.50;2.33;;;;;;;;;;5018587;28;20204;-65
2023/10/26 14:30:13;;;;;;;5.83;2.70;;;;;;;;;;5036755;28;20271;-65
2023/10/26 14:32:41;;;;;;;2.53;2.00;;;;;;;;;;5040799;28;20238;-65
2023/10/26 14:35:09;;;;;;;4.23;2.83;;;;;;;;;;5039595;28;20247;-65
2023/10/26 14:37:39;;;;;;;2.77;2.30;;;;;;;;;;5040045;28;20693;-65
2023/10/26 14:40:08;;;;;;;2.10;1.90;;;;;;;;;;5039776;28;20238;-65
2023/10/26 14:42:36;;;;;;;10.13;5.03;;;;;;;;;;5029281;28;20197;-65
2023/10/26 14:45:05;;;;;;;7.73;2.40;;;;;;;;;;5040781;28;20223;-65
2023/10/26 14:47:37;;;;;;;3.67;2.33;;;;;;;;;;5036728;28;20665;-66
2023/10/26 14:50:09;;;;;;;2.40;2.03;;;;;;;;;;5028368;28;20212;-66
2023/10/26 14:52:39;;;;;;;4.60;2.77;;;;;;;;;;5040907;28;20219;-65
2023/10/26 14:55:08;;;;;;;3.17;2.43;;;;;;;;;;5035858;28;20223;-66
2023/10/26 14:57:37;;;;;;;2.63;1.77;;;;;;;;;;5022734;28;20232;-65
2023/10/26 15:00:06;;;;;;;2.60;1.67;;;;;;;;;;5021665;28;20254;-65
2023/10/26 15:02:35;;;;;;;2.30;1.67;;;;;;;;;;5024859;28;20250;-65
2023/10/26 15:05:03;;;;;;;4.53;1.53;;;;;;;;;;5040607;28;20296;-65
2023/10/26 15:07:31;;;;;;;1.60;1.50;;;;;;;;;;5035875;28;20208;-65
2023/10/26 15:10:01;;;;;;;2.93;1.63;;;;;;;;;;5020991;28;20204;-65
2023/10/26 15:12:48;;;;;;;1.57;1.47;;;;;;;;;;5021397;28;20223;-65
2023/10/26 15:15:17;;;;;;;5.63;2.10;;;;;;;;;;5022205;28;20721;-65
2023/10/26 15:17:46;;;;;;;6.13;2.77;;;;;;;;;;5021147;28;20243;-65
2023/10/26 15:20:14;;;;;;;3.83;1.80;;;;;;;;;;5020709;28;20252;-65
2023/10/26 15:22:42;;;;;;;3.13;1.90;;;;;;;;;;5027289;28;20596;-66
2023/10/26 15:25:11;;;;;;;5.60;1.90;;;;;;;;;;5020822;28;20233;-66
2023/10/26 15:27:40;;;;;;;3.57;1.87;;;;;;;;;;5024702;28;20224;-70
2023/10/26 15:30:08;;;;;;;3.70;1.80;;;;;;;;;;5031767;28;20246;-70
2023/10/26 15:32:36;;;;;;;4.53;2.33;;;;;;;;;;5035525;28;20555;-70
2023/10/26 15:35:05;;;;;;;2.83;2.23;;;;;;;;;;5020565;28;20267;-70
2023/10/26 15:37:33;;;;;;;4.80;3.10;;;;;;;;;;5031907;28;20226;-70
2023/10/26 15:40:01;;;;;;;4.87;2.57;;;;;;;;;;5030603;28;20208;-70
2023/10/26 15:42:31;;;;;;;5.10;2.57;;;;;;;;;;5034664;28;20212;-70